メインページ
METAR-TAF:

METAR-TAF

空港 :

ミネアポリス・セントポール国際空港

ミネアポリス, ミネソタ州, アメリカ合衆国

緯度: 44-52-59N, 経度: 093-13-44W, 海抜: 256m

現時点の気象観測

当レポートは16分前の04:53(UTC)に作成
南東の風 5kt
気温 -3°C
湿度 80%
気圧 1023 hPa
視程: 16.1km
晴天

METAR: KMSP 150453Z 13005KT 10SM CLR M03/M06 A3021 RMK AO2 SLP241 T10331056

時間: 23:09 (05:09 UTC)

予報

当レポートは2時間5分前の03:04(UTC)に作成
予報は15日の 03時(UTC)から 16日の 06時(UTC)まで有効
変向風 3kt
視程: 10km
晴天
15日の 0600時(UTC)から
の風 kt
視程: 10km
晴天
15日の 09時(UTC)から 15日の 13時(UTC)まで一時的に
視程: 8.0km
高度300ftの雲はほとんどない
15日の 1400時(UTC)から
南東の風 5kt
視程: 10km
晴天
15日の 2200時(UTC)から
南/南東の風 8kt
視程: 10km
晴天

TAF: KMSP 150304Z 1503/1606 VRB03KT P6SM SKC FM150600 00000KT P6SM SKC TEMPO 1509/1513 5SM BR FEW003 FM151400 13005KT P6SM SKC FM152200 16008KT P6SM SKC

4,000以上の空港の気象観測と天気予報(METAR報とTAF報)

利用可能な観測所は地図上に黄色い丸と赤い丸で示す。

丸の上にカーソルを重ねると観測所名を参照できる。

次にクリックすると気象観測と天気予報を参照できる。

マップの切り替え:黒色「×」印の緑ボタンをクリックして拡大、「-」印の緑ボタンをクリックして縮小、緑色の三角印をクリックして隣りの地図に切り替え


METAR-TAF: